ADDS METAR Data INFO
IDs: Format: Raw Decoded Include TAF

Data at: 1411 UTC 12 Dec 2017

PPIZ 121356Z AUTO 04026G30KT 1SM -SN BR FEW009 SCT015 M14/M16 A2971 RMK AO2 PK WND 05031/1327 SLP063 P0000 T11441161 FZRANO TSNO
PPIZ 121353Z AUTO 04025G30KT 3/4SM -SN BR FEW007 SCT013 M14/M16 A2971 RMK AO2 PK WND 05031/1327 P0000 FZRANO TSNO
PPIZ 121346Z AUTO 04024KT 3/4SM -SN BR SCT013 M14/M16 A2971 RMK AO2 PK WND 05031/1327 P0000 FZRANO TSNO
PPIZ 121340Z AUTO 04024KT 1SM -SN BR BKN013 BKN018 BKN120 M14/M16 A2971 RMK AO2 PK WND 05031/1327 P0000 FZRANO TSNO
PPIZ 121319Z AUTO 04026KT 3/4SM -SN BR FEW009 BKN015 OVC020 M14/M16 A2971 RMK AO2 PK WND 05030/1300 P0000 FZRANO TSNO
PPIZ 121312Z AUTO 05024KT 3/4SM -SN BR SCT010 SCT014 OVC018 M14/M16 A2971 RMK AO2 PK WND 05030/1300 P0000 FZRANO TSNO
PPIZ 121300Z AUTO 04026KT 3/4SM -SN BR FEW006 BKN009 OVC070 M14/M16 A2970 RMK AO2 PK WND 05030/1300 CIG 008V014 P0000 FZRANO TSNO
PPIZ 121256Z AUTO 04027KT 1/2SM SN FZFG FEW006 BKN011 OVC070 M14/M16 A2970 RMK AO2 PK WND 04031/1256 SLP062 P0000 T11441161 FZRANO TSNO
PPIZ 121251Z AUTO 05027G31KT 1/2SM SN FZFG FEW006 BKN011 OVC070 M14/M16 A2970 RMK AO2 PK WND 04031/1251 P0000 FZRANO TSNO
PPIZ 121156Z AUTO 05026KT 3/4SM -SN BR FEW005 OVC048 M14/M16 A2972 RMK AO2 PK WND 05032/1135 SLP067 P0000 60000 T11441156 53001 FZRANO TSNO
PPIZ 121146Z AUTO 05027KT 3/4SM -SN BR SCT005 OVC050 M14/M16 A2971 RMK AO2 PK WND 05032/1135 P0000 FZRANO TSNO
PPIZ 121118Z AUTO 05025KT 3/4SM -SN BR BKN005 OVC050 M14/M16 A2972 RMK AO2 PK WND 05029/1114 P0000 FZRANO TSNO
PPIZ 121056Z AUTO 05026G31KT 3/4SM -SN BR SCT005 OVC050 M14/M16 A2971 RMK AO2 PK WND 05034/1026 SLP066 P0000 T11441156 FZRANO TSNO
PPIZ 121037Z AUTO 05025G33KT 3/4SM -SN BR SCT005 OVC050 M14/M16 A2972 RMK AO2 PK WND 05034/1026 P0000 FZRANO TSNO
PPIZ 121024Z AUTO 05026KT 1/2SM -SN FZFG BKN005 OVC055 M14/M16 A2972 RMK AO2 PK WND 05032/1017 P0000 FZRANO TSNO
PPIZ 121020Z AUTO 05027KT 3/4SM -SN BR SCT005 OVC055 M14/M16 A2972 RMK AO2 PK WND 05032/1017 P0000 FZRANO TSNO
PPIZ 121009Z AUTO 05030KT 1/2SM SN FZFG SCT005 OVC055 M14/M16 A2971 RMK AO2 PK WND 05032/1008 P0000 FZRANO TSNO
PPIZ 121002Z AUTO 05028KT 3/4SM -SN BR FEW005 SCT012 OVC055 M14/M16 A2971 RMK AO2 PK WND 05032/1000 P0000 FZRANO TSNO
PPIZ 120956Z AUTO 05027G34KT 1/2SM -SN FZFG FEW005 BKN014 OVC055 M14/M16 A2971 RMK AO2 PK WND 04034/0952 SLP064 P0000 T11441156 FZRANO TSNO
PPIZ 120909Z AUTO 05029KT 1/2SM SN FZFG FEW007 BKN027 OVC033 M14/M16 A2971 RMK AO2 PK WND 05033/0906 P0000 FZRANO TSNO
PPIZ 120856Z AUTO 05028G35KT 1/2SM SN FZFG SCT009 BKN034 OVC041 M14/M16 A2971 RMK AO2 PK WND 05035/0854 SLP066 P0000 60000 T11391156 411391178 50003 FZRANO TSNO
PPIZ 120854Z AUTO 05031G35KT 1/4SM +SN FZFG BKN007 BKN021 OVC041 M14/M16 A2971 RMK AO2 PK WND 05035/0854 CIG 005V016 P0000 411391178 FZRANO TSNO
PPIZ 120845Z AUTO 05029G33KT 1/2SM SN FZFG SCT007 BKN015 OVC046 M14/M16 A2971 RMK AO2 PK WND 06035/0821 CIG 011V025 P0000 FZRANO TSNO
PPIZ 120840Z AUTO 05029G33KT 1/2SM SN FZFG BKN011 BKN023 OVC032 M14/M16 A2971 RMK AO2 PK WND 06035/0821 CIG 007V019 P0000 FZRANO TSNO
PPIZ 120756Z AUTO 05032KT 1/2SM SN BKN009 BKN016 OVC023 A2971 RMK AO2 PK WND 04036/0707 CIG 004V013 SLPNO P0000 FZRANO TSNO
PPIZ 120656Z AUTO 05030G35KT 1/4SM +SN BKN009 OVC013 A2970 RMK AO2 PK WND 05036/0640 CIG 006V011 SLPNO P0000 FZRANO TSNO
PPIZ 120549Z AUTO 04028G34KT 1/4SM +SN OVC011 A2970 RMK AO2 PK WND 04035/0506 CIG 007V012 P0000 FZRANO TSNO
PPIZ 120449Z AUTO 05027G34KT 1/4SM +SN FZFG OVC011 M14/M15 A2970 RMK AO2 PK WND 04034/0441 P0000 FZRANO TSNO
PPIZ 120356Z AUTO 05028G32KT 1/2SM SN FZFG OVC013 M14/M15 A2970 RMK AO2 PK WND 05032/0356 SLP063 P0000 T11391150 FZRANO TSNO
PPIZ 120328Z AUTO 05027KT 1/2SM SN FZFG OVC017 M14/M15 A2970 RMK AO2 PK WND 05032/0315 P0000 FZRANO TSNO
PPIZ 120321Z AUTO 05026KT 3/4SM -SN BR BKN015 OVC019 M14/M15 A2970 RMK AO2 PK WND 05032/0315 P0000 FZRANO TSNO
PPIZ 120256Z AUTO 04027KT 1/2SM SN FZFG OVC013 M14/M15 A2970 RMK AO2 PK WND 05035/0237 SLP061 P0000 60000 T11391150 56007 FZRANO TSNO
PPIZ 120235Z AUTO 04030G35KT 1/2SM SN FZFG OVC011 M14/M16 A2969 RMK AO2 PK WND 04035/0235 P0000 FZRANO TSNO
PPIZ 120226Z AUTO 05029G35KT 1/4SM +SN FZFG OVC011 M14/M16 A2970 RMK AO2 PK WND 04035/0221 P0000 FZRANO TSNO
PPIZ 120208Z AUTO 05029KT 1/2SM SN FZFG OVC013 M14/M16 A2970 RMK AO2 PK WND 04034/0205 P0000 FZRANO TSNO
PPIZ 120156Z AUTO 04026KT 1/2SM SN FZFG OVC015 M14/M16 A2970 RMK AO2 PK WND 04036/0101 SLP062 P0000 T11391156 FZRANO TSNO
PPIZ 120056Z AUTO 05029KT 1/2SM SN FZFG SCT012 SCT018 OVC024 M14/M16 A2971 RMK AO2 PK WND 04036/0044 SLP065 P0000 T11391156 FZRANO TSNO
PPIZ 120040Z AUTO 05029KT 1/2SM SN FZFG SCT012 OVC017 M14/M16 A2972 RMK AO2 PK WND 04036/0018 P0000 FZRANO TSNO
PPIZ 120027Z AUTO 04030G36KT 1/4SM +SN FZFG OVC012 M14/M16 A2972 RMK AO2 PK WND 04036/0018 P0000 FZRANO TSNO
PPIZ 120003Z AUTO 04032G36KT 1/4SM +SN FZFG BKN010 OVC016 M14/M16 A2972 RMK AO2 PK WND 04036/0000 CIG 007V013 P0000 FZRANO TSNO
PPIZ 112356Z AUTO 04029G33KT 1/4SM +SN FZFG SCT008 BKN016 OVC023 M14/M16 A2972 RMK AO2 PK WND 04037/2342 SLP068 P0000 60000 T11391156 11139 21161 55000 FZRANO TSNO
PPIZ 112354Z AUTO 04029G33KT 1/4SM +SN FZFG FEW008 BKN013 OVC023 M14/M15 A2972 RMK AO2 PK WND 04037/2342 P0000 FZRANO TSNO
PPIZ 112315Z AUTO 04026G35KT 1/4SM +SN FZFG BKN012 BKN017 OVC024 M14/M15 A2971 RMK AO2 PK WND 04036/2301 P0000 FZRANO TSNO
PPIZ 112256Z AUTO 04027G34KT 1/4SM SN FZFG FEW011 BKN017 OVC024 M14/M16 A2972 RMK AO2 PK WND 04035/2209 SLP067 P0000 T11391156 FZRANO TSNO
PPIZ 112206Z AUTO 05028G32KT 1/4SM +SN FZFG BKN011 BKN037 OVC048 M14/M16 A2972 RMK AO2 PK WND 05032/2205 P0000 FZRANO TSNO
PPIZ 112156Z AUTO 05025KT 1/4SM SN FZFG FEW011 BKN017 OVC038 M14/M16 A2972 RMK AO2 PK WND 05034/2119 SLP069 P0000 T11391156 FZRANO TSNO
PPIZ 112143Z AUTO 05027G33KT 1/4SM +SN FZFG SCT019 BKN028 OVC048 M14/M16 A2972 RMK AO2 PK WND 05034/2119 P0000 FZRANO TSNO
PPIZ 112125Z AUTO 05028G34KT 1/2SM SN FZFG FEW012 BKN020 OVC034 M14/M16 A2972 RMK AO2 PK WND 05034/2119 P0000 FZRANO TSNO
PPIZ 112112Z AUTO 05030G34KT 1/2SM SN FZFG BKN012 BKN020 OVC025 M14/M16 A2972 RMK AO2 PK WND 05034/2112 P0000 FZRANO TSNO
PPIZ 112056Z AUTO 05028G34KT 1/4SM +SN FZFG BKN012 OVC018 M15/M17 A2972 RMK AO2 PK WND 06034/2053 SLP068 P0000 60000 T11501167 52001 FZRANO TSNO
PPIZ 112016Z AUTO 05029G32KT 1/2SM SN FZFG OVC010 M15/M17 A2972 RMK AO2 PK WND 05032/2016 CIG 007V013 P0000 FZRANO TSNO
PPIZ 111956Z AUTO 05029G34KT 1/4SM +SN FZFG OVC011 M16/M17 A2972 RMK AO2 PK WND 04037/1929 CIG 007V013 SLP067 P0000 T11561172 FZRANO TSNO
PPIZ 111856Z AUTO 04028G34KT 1/4SM +SN FZFG BKN011 OVC018 M16/M17 A2972 RMK AO2 PK WND 04035/1828 SLP067 P0000 T11561172 FZRANO TSNO
PPIZ 111822Z AUTO 04028KT 1/4SM +SN FZFG BKN013 OVC021 M16/M17 A2972 RMK AO2 PK WND 04034/1800 P0000 FZRANO TSNO
PPIZ 111756Z AUTO 04026G33KT 1/2SM SN FZFG BKN020 OVC055 M16/M18 A2972 RMK AO2 PK WND 04033/1754 SLP067 P0000 60000 T11611178 11161 21172 58008 FZRANO TSNO
PPIZ 111745Z AUTO 04029G33KT 1/2SM SN FZFG SCT020 OVC055 M16/M18 A2972 RMK AO2 PK WND 05033/1745 P0000 FZRANO TSNO
PPIZ 111721Z AUTO 05025KT 1/2SM SN FZFG FEW010 BKN022 OVC055 M16/M18 A2972 RMK AO2 PK WND 05032/1719 P0000 FZRANO TSNO
PPIZ 111656Z AUTO 05028G31KT 1/2SM SN FZFG FEW008 BKN047 OVC055 M16/M18 A2972 RMK AO2 PK WND 04032/1643 SLP069 P0000 T11611178 FZRANO TSNO
PPIZ 111556Z AUTO 04026KT 1/2SM -SN FZFG FEW008 OVC037 M17/M18 A2974 RMK AO2 PK WND 05030/1553 SLP075 P0000 T11671183 FZRANO TSNO
PPIZ 111518Z AUTO 04025KT 3/4SM -SN BR BKN006 OVC022 M17/M18 A2976 RMK AO2 PK WND 04029/1514 CIG 004V010 P0000 FZRANO TSNO
PPIZ 111403Z AUTO 04026KT 1/2SM -SN FZFG SCT008 OVC016 M17/M19 A2980 RMK AO2 PK WND 04029/1401 P0000 FZRANO TSNO
PPIZ 111342Z AUTO 04026KT 1/2SM -SN FZFG BKN006 OVC016 M17/M19 A2981 RMK AO2 PK WND 04033/1314 CIG 004V009 P0000 FZRANO TSNO
PPIZ 111332Z AUTO 04026KT 1/4SM +SN FZFG BKN006 OVC018 M17/M19 A2980 RMK AO2 PK WND 04033/1314 CIG 004V011 P0000 FZRANO TSNO
PPIZ 111325Z AUTO 04027KT 1/2SM SN FZFG BKN006 OVC025 M17/M19 A2980 RMK AO2 PK WND 04033/1314 CIG 004V009 P0000 FZRANO TSNO
PPIZ 111056Z AUTO 05026G34KT 1/4SM +SN FZFG BKN006 OVC010 M18/M19 A2987 RMK AO2 PK WND 05036/1005 CIG 004V008 SLP117 P0000 T11781194 FZRANO TSNO
PPIZ 110956Z AUTO 05029G40KT 1/4SM +SN FZFG BKN006 OVC015 M18/M19 A2989 RMK AO2 PK WND 05040/0954 CIG 003V009 SLP127 P0000 T11781194 FZRANO TSNO
PPIZ 110924Z AUTO 05029G38KT 1/4SM +SN FZFG BKN006 OVC013 M18/M19 A2990 RMK AO2 PK WND 05038/0919 CIG 004V008 P0000 FZRANO TSNO
PPIZ 110856Z AUTO 05029G34KT 1/4SM +SN FZFG SCT006 OVC013 M17/M19 A2992 RMK AO2 PK WND 05036/0836 SLP135 P0000 60000 T11721194 411561178 56015 FZRANO TSNO
PPIZ 110822Z AUTO 05027G35KT 1/4SM +SN FZFG BKN006 OVC013 M17/M19 A2992 RMK AO2 PK WND 05035/0819 CIG 003V010 P0000 FZRANO TSNO
PPIZ 110756Z AUTO 05027G36KT 1/4SM +SN FZFG SCT006 BKN010 OVC015 M17/M19 A2993 RMK AO2 PK WND 04037/0724 CIG 008V012 SLP140 P0000 T11671189 FZRANO TSNO
PPIZ 110708Z AUTO 05027G32KT 1/4SM +SN FZFG FEW006 OVC013 M17/M18 A2994 RMK AO2 PK WND 05035/0702 P0000 FZRANO TSNO
PPIZ 110656Z AUTO 05027KT 1/4SM +SN FZFG BKN006 OVC013 M17/M18 A2994 RMK AO2 PK WND 05035/0631 CIG 004V011 SLP144 P0000 T11671183 FZRANO TSNO
PPIZ 110654Z AUTO 05027KT 1/4SM +SN FZFG BKN006 OVC013 M17/M18 A2994 RMK AO2 PK WND 05035/0631 CIG 004V011 P0000 FZRANO TSNO
PPIZ 110649Z AUTO 05027KT 1/2SM SN FZFG SCT006 OVC013 M17/M18 A2995 RMK AO2 PK WND 05035/0631 P0000 FZRANO TSNO
PPIZ 110626Z AUTO 04025G33KT 1/4SM +SN FZFG BKN006 BKN011 OVC021 M17/M18 A2996 RMK AO2 PK WND 04033/0626 CIG 004V009 P0000 FZRANO TSNO
PPIZ 110514Z AUTO 04026G32KT 1/2SM SN FZFG FEW004 OVC015 M16/M18 A2997 RMK AO2 PK WND 04032/0512 P0000 FZRANO TSNO
PPIZ 110456Z AUTO 04028KT 1/2SM SN FZFG OVC013 M16/M18 A2998 RMK AO2 PK WND 04031/0440 SLP155 P0000 T11611178 FZRANO TSNO
PPIZ 110448Z AUTO 04024G31KT 1/2SM -SN FZFG OVC013 M16/M18 A2998 RMK AO2 PK WND 04031/0440 P0000 FZRANO TSNO
PPIZ 110422Z AUTO 04027KT 1/4SM +SN FZFG BKN015 OVC020 M16/M18 A2998 RMK AO2 PK WND 04030/0422 P0000 FZRANO TSNO
PPIZ 110413Z AUTO 04024KT 1/4SM +SN FZFG BKN013 OVC020 M16/M18 A2999 RMK AO2 PK WND 04029/0411 P0000 FZRANO TSNO
PPIZ 110356Z AUTO 04024KT 1/2SM SN FZFG BKN020 BKN025 OVC034 M16/M18 A2999 RMK AO2 PK WND 04029/0355 SLP161 P0000 T11611178 FZRANO TSNO
PPIZ 110318Z AUTO 04024KT 1/2SM SN FZFG OVC021 M16/M18 A3000 RMK AO2 PK WND 04029/0314 P0000 FZRANO TSNO
PPIZ 110256Z AUTO 04022KT 3/4SM -SN BR BKN019 OVC048 M16/M18 A3001 RMK AO2 PK WND 04028/0236 SLP166 P0000 60000 T11611178 58012 FZRANO TSNO
PPIZ 110248Z AUTO 04022KT 3/4SM -SN BR SCT021 OVC048 M16/M18 A3001 RMK AO2 PK WND 04028/0236 P0000 FZRANO TSNO
PPIZ 110226Z AUTO 04025KT 1SM -SN BR OVC050 M16/M18 A3001 RMK AO2 PK WND 04027/0223 P0000 FZRANO TSNO